EW9900 Weather Reports


Display with metric or nautical units.
time (UTC)temp
F
wind
direction
speed
MPH
gust
MPH
rain 1hr
in
rain 24hr
in
rain mn
in
humidity
%
barometer
mb
20220810020428 65 243 0.0 0.0 0.00 0.22 0.22 85 1026.0
20220810015858 66 243 0.0 0.0 0.00 0.22 0.22 85 1025.6
20220810015504 66 243 0.0 0.0 0.00 0.22 0.22 85 1025.8
20220810014255 65 239 0.0 4.0 0.00 0.22 0.22 85 1025.3
20220810013740 65 239 2.0 4.0 0.00 0.22 0.22 84 1025.3
20220810013225 65 239 2.0 5.0 0.00 0.22 0.22 84 1025.2
20220810012614 66 228 3.0 3.0 0.00 0.22 0.22 84 1025.2
20220810012601 66 234 2.0 5.0 0.00 0.22 0.22 84 1025.2
20220810011736 65 226 1.0 5.0 0.00 0.22 0.22 83 1025.3
20220810011221 65 226 2.0 5.0 0.00 0.22 0.22 82 1025.1
20220810010704 65 225 3.0 6.0 0.00 0.22 0.22 82 1025.1
20220810010108 65 219 3.0 6.0 0.00 0.22 0.22 83 1025.1
20220810005323 65 210 3.0 7.0 0.00 0.22 0.22 82 1025.2
20220810005310 65 223 2.0 7.0 0.00 0.22 0.22 81 1024.9
20220810004210 65 209 4.0 8.0 0.00 0.22 0.22 81 1024.8
20220810003925 65 223 4.0 8.0 0.00 0.22 0.22 81 1024.8
20220810003057 65 217 3.0 6.0 0.00 0.22 0.22 81 1024.8
20220810002541 65 210 3.0 6.0 0.00 0.22 0.22 81 1024.8
20220810002024 64 217 3.0 6.0 0.00 0.22 0.22 81 1024.9
20220810001658 64 217 3.0 6.0 0.00 0.22 0.22 82 1024.9
20220810001140 64 211 3.0 6.0 0.00 0.22 0.22 81 1025.1
20220810000623 64 257 3.0 8.0 0.00 0.22 0.22 82 1025.3
20220809235757 64 249 4.0 8.0 0.06 0.22 0.22 82 1025.3
20220809235458 64 229 3.0 4.0 0.22 0.22 0.22 82 1025.4
20220809235335 64 209 3.0 9.0 0.21 0.22 0.22 83 1025.4
20220809234131 64 232 3.0 10.0 0.22 0.22 0.22 82 1025.4
20220809233846 63 265 3.0 9.0 0.22 0.22 0.22 82 1025.2
20220809233249 63 302 4.0 11.0 0.22 0.22 0.22 81 1025.4
20220809232507 63 323 4.0 11.0 0.22 0.22 0.22 81 1025.8
20220809231946 64 319 4.0 15.0 0.22 0.22 0.22 80 1026.2
20220809231622 65 303 3.0 15.0 0.22 0.22 0.22 77 1025.9
20220809231342 66 296 4.0 8.0 0.22 0.22 0.22 76 1025.8
20220809230455 70 38 5.0 13.0 0.13 0.13 0.13 64 1026.4
20220809230332 67 253 5.0 11.0 0.22 0.22 0.22 73 1025.8
20220809225434 74 9 5.0 13.0 0.00 0.00 0.00 51 1025.9
20220809224610 75 304 7.0 15.0 0.00 0.00 0.00 49 1025.6
20220809224053 77 339 6.0 15.0 0.00 0.00 0.00 45 1025.4
20220809223537 78 355 6.0 15.0 0.00 0.00 0.00 42 1025.6
20220809223158 83 103 4.0 12.0 0.00 0.00 0.00 37 1025.3
20220809223035 82 333 5.0 13.0 0.00 0.00 0.00 40 1025.6
20220809221910 84 94 3.0 12.0 0.00 0.00 0.00 36 1025.1
20220809221815 85 129 4.0 11.0 0.00 0.00 0.00 37 1025.2
20220809220754 84 141 5.0 11.0 0.00 0.00 0.00 36 1025.3
20220809220511 83 116 8.0 13.0 0.00 0.00 0.00 36 1025.3
20220809215913 83 86 7.0 13.0 0.00 0.00 0.00 37 1025.3
20220809215358 83 69 5.0 12.0 0.00 0.00 0.00 35 1025.2
20220809214802 84 102 5.0 11.0 0.00 0.00 0.00 35 1025.2
20220809214513 84 115 5.0 11.0 0.00 0.00 0.00 35 1025.4
20220809213454 84 21 4.0 10.0 0.00 0.00 0.00 38 1025.6
20220809213358 83 114 2.0 8.0 0.00 0.00 0.00 37 1025.6
20220809212338 83 76 3.0 7.0 0.00 0.00 0.00 39 1025.8
20220809211823 83 76 4.0 10.0 0.00 0.00 0.00 36 1025.7
20220809211442 83 113 4.0 6.0 0.00 0.00 0.00 36 1025.7
20220809211318 84 53 3.0 10.0 0.00 0.00 0.00 38 1025.7
20220809210559 83 78 4.0 10.0 0.00 0.00 0.00 39 1025.8
20220809210203 83 118 5.0 11.0 0.00 0.00 0.00 37 1025.7
20220809205307 82 332 4.0 10.0 0.00 0.00 0.00 38 1025.9
20220809204438 83 77 4.0 10.0 0.00 0.00 0.00 37 1026.0
20220809203922 83 104 4.0 10.0 0.00 0.00 0.00 39 1026.2
20220809203637 83 34 4.0 13.0 0.00 0.00 0.00 39 1026.0
20220809202808 83 65 4.0 13.0 0.00 0.00 0.00 39 1026.2
20220809202249 83 150 4.0 6.0 0.00 0.00 0.00 39 1026.3
20220809201731 83 100 4.0 9.0 0.00 0.00 0.00 40 1026.4
20220809201131 83 93 3.0 7.0 0.00 0.00 0.00 43 1026.5
20220809200614 83 82 2.0 9.0 0.00 0.00 0.00 42 1026.7
20220809200013 82 92 4.0 9.0 0.00 0.00 0.00 45 1026.7
20220809195455 81 108 5.0 11.0 0.00 0.00 0.00 45 1026.8
20220809194937 81 27 6.0 11.0 0.00 0.00 0.00 46 1026.8
20220809194341 81 89 6.0 11.0 0.00 0.00 0.00 45 1026.8
20220809193824 81 59 7.0 10.0 0.00 0.00 0.00 46 1027.0
20220809193308 81 92 6.0 12.0 0.00 0.00 0.00 47 1027.0
20220809192710 81 85 6.0 13.0 0.00 0.00 0.00 47 1027.0
20220809192153 81 120 6.0 13.0 0.00 0.00 0.00 45 1027.3
20220809191555 81 162 4.0 9.0 0.00 0.00 0.00 46 1027.3
20220809191038 81 125 4.0 11.0 0.00 0.00 0.00 47 1027.3
20220809190517 80 121 6.0 11.0 0.00 0.00 0.00 49 1027.4
20220809185919 80 80 7.0 13.0 0.00 0.00 0.00 49 1027.5
20220809185407 80 115 6.0 13.0 0.00 0.00 0.00 51 1027.5
20220809184845 80 117 4.0 8.0 0.00 0.00 0.00 51 1027.5
20220809184255 79 91 4.0 10.0 0.00 0.00 0.00 49 1027.6
20220809183736 79 323 4.0 9.0 0.00 0.00 0.00 49 1027.8
20220809183218 79 44 3.0 9.0 0.00 0.00 0.00 50 1027.8
20220809182622 80 163 3.0 6.0 0.00 0.00 0.00 50 1027.9
20220809182102 80 95 3.0 7.0 0.00 0.00 0.00 50 1027.9
20220809181504 79 132 3.0 7.0 0.00 0.00 0.00 51 1027.9
20220809181436 78 94 2.0 6.0 0.00 0.00 0.00 53 1031.9
20220809181332 77 112 3.0 6.0 0.00 0.00 0.00 59 1028.4
20220809181328 77 74 4.0 9.0 0.00 0.00 0.00 53 1028.2
20220809181321 78 69 3.0 6.0 0.00 0.00 0.00 54 1028.1
20220809181314 79 95 3.0 7.0 0.00 0.00 0.00 51 1027.9
20220809180108 78 61 3.0 6.0 0.00 0.00 0.00 54 1028.0
20220809173132 76 94 3.0 9.0 0.00 0.00 0.00 55 1028.2
20220809172612 76 69 3.0 9.0 0.00 0.00 0.00 59 1028.4
20220809172054 76 111 4.0 9.0 0.00 0.00 0.00 59 1028.2
20220809171457 75 82 4.0 9.0 0.00 0.00 0.00 61 1028.2
20220809170710 75 88 5.0 8.0 0.00 0.00 0.00 61 1028.4
20220809170112 75 105 5.0 10.0 0.00 0.00 0.00 61 1028.4
20220809165553 75 92 5.0 9.0 0.00 0.00 0.00 60 1028.4
20220809165036 75 105 4.0 9.0 0.00 0.00 0.00 61 1028.2
20220809164754 74 35 4.0 5.0 0.00 0.00 0.00 62 1028.4
20220809164236 74 84 3.0 7.0 0.00 0.00 0.00 62 1028.4
20220809163448 74 28 4.0 6.0 0.00 0.00 0.00 64 1028.4
20220809162850 73 19 4.0 6.0 0.00 0.00 0.00 64 1028.2
20220809162606 73 11 4.0 5.0 0.00 0.00 0.00 62 1028.4
20220809162049 74 78 3.0 7.0 0.00 0.00 0.00 63 1028.2
20220809161219 73 105 3.0 7.0 0.00 0.00 0.00 62 1028.2
20220809160701 73 60 3.0 7.0 0.00 0.00 0.00 64 1028.2
20220809160334 72 61 3.0 6.0 0.00 0.00 0.00 64 1028.4
20220809155547 72 40 4.0 6.0 0.00 0.00 0.00 65 1028.4
20220809155257 72 113 4.0 8.0 0.00 0.00 0.00 65 1028.2
20220809154429 71 95 3.0 7.0 0.00 0.00 0.00 65 1028.5
20220809154140 71 88 3.0 7.0 0.00 0.00 0.00 68 1028.2
20220809153353 71 80 3.0 6.0 0.00 0.00 0.00 67 1028.5
20220809153111 71 87 2.0 7.0 0.00 0.00 0.00 67 1028.4
20220809152318 70 101 3.0 7.0 0.00 0.00 0.00 68 1028.5
20220809151800 69 99 2.0 6.0 0.00 0.00 0.00 70 1028.5
20220809151200 69 117 3.0 6.0 0.00 0.00 0.00 71 1028.4
20220809150641 68 108 3.0 6.0 0.00 0.00 0.00 70 1028.5
20220809150044 68 61 3.0 4.0 0.00 0.00 0.00 72 1028.5
20220809145525 68 103 3.0 6.0 0.00 0.00 0.00 72 1028.5
20220809145004 67 92 3.0 4.0 0.00 0.00 0.00 72 1028.5
20220809144404 67 100 3.0 7.0 0.00 0.00 0.00 74 1028.5
20220809143844 66 98 2.0 6.0 0.00 0.00 0.00 76 1028.5
20220809143325 65 265 1.0 3.0 0.00 0.00 0.00 78 1028.4
20220809142724 64 263 1.0 3.0 0.00 0.00 0.00 83 1028.4
20220809142206 63 261 1.0 3.0 0.00 0.00 0.00 85 1028.2
20220809141616 61 261 0.0 0.0 0.00 0.00 0.00 89 1028.2
20220809141053 60 261 0.0 0.0 0.00 0.00 0.00 91 1028.2
20220809140540 60 261 0.0 0.0 0.00 0.00 0.00 91 1028.2
20220809140033 59 261 0.0 2.0 0.00 0.00 0.00 91 1028.2
20220809135510 58 261 0.0 2.0 0.00 0.00 0.00 91 1028.2
20220809134956 58 261 1.0 2.0 0.00 0.00 0.00 91 1028.1
20220809134354 57 260 1.0 3.0 0.00 0.00 0.00 91 1028.1
20220809133838 57 261 1.0 3.0 0.00 0.00 0.00 91 1028.1
20220809133323 57 261 1.0 3.0 0.00 0.00 0.00 91 1028.1
20220809132724 57 261 0.0 0.0 0.00 0.00 0.00 91 1028.1
20220809132208 56 261 0.0 3.0 0.00 0.00 0.00 91 1027.9
20220809131613 56 261 1.0 3.0 0.00 0.00 0.00 91 1027.9
20220809131055 56 261 2.0 3.0 0.00 0.00 0.00 91 1027.9
20220809130540 55 261 2.0 3.0 0.00 0.00 0.00 91 1027.9
20220809125943 55 261 2.0 3.0 0.00 0.00 0.00 91 1028.0
20220809125426 55 261 2.0 3.0 0.00 0.00 0.00 91 1027.9
20220809124912 55 261 2.0 3.0 0.00 0.00 0.00 91 1027.9
20220809124312 55 261 2.0 4.0 0.00 0.00 0.00 90 1027.9
20220809123755 55 261 1.0 3.0 0.00 0.00 0.00 90 1027.6
20220809123234 55 261 1.0 2.0 0.00 0.00 0.00 90 1027.6
20220809122632 55 261 2.0 0.0 0.00 0.00 0.00 90 1022.0
20220809121155 55 261 2.0 3.0 0.00 0.01 0.00 89 1027.5
20220809120638 55 261 2.0 3.0 0.00 0.01 0.00 89 1027.6
20220809120136 55 261 2.0 3.0 0.00 0.01 0.00 89 1027.4
20220809115607 55 261 2.0 3.0 0.00 0.01 0.00 89 1027.4
20220809115104 55 261 2.0 3.0 0.00 0.01 0.00 89 1027.3
20220809114557 55 261 2.0 4.0 0.00 0.01 0.00 89 1027.3
20220809114051 55 261 2.0 4.0 0.00 0.01 0.00 89 1027.3
20220809113735 56 261 2.0 3.0 0.00 0.01 0.00 89 1027.0
20220809113610 56 261 2.0 3.0 0.00 0.01 0.00 89 1027.0
20220809112452 56 261 2.0 4.0 0.00 0.01 0.00 89 1027.0
20220809111947 56 261 2.0 3.0 0.00 0.01 0.00 89 1027.1
20220809111447 56 261 2.0 4.0 0.00 0.01 0.00 89 1027.3
20220809110942 56 261 3.0 4.0 0.00 0.01 0.00 89 1027.3
20220809110442 56 261 2.0 4.0 0.00 0.01 0.00 88 1027.3
20220809105935 56 261 2.0 3.0 0.00 0.01 0.00 88 1027.4
20220809105426 56 261 1.0 4.0 0.00 0.01 0.00 88 1027.3
20220809104923 56 261 0.0 4.0 0.00 0.01 0.00 88 1027.3
20220809104424 56 236 0.0 0.0 0.00 0.01 0.00 88 1027.1
20220809103922 56 236 0.0 0.0 0.00 0.01 0.00 87 1027.0
20220809103413 56 233 0.0 0.0 0.00 0.01 0.00 87 1027.0
20220809102856 56 233 0.0 0.0 0.00 0.01 0.00 87 1027.1
20220809102343 56 233 0.0 0.0 0.00 0.01 0.00 86 1027.1
20220809101840 56 233 0.0 2.0 0.00 0.01 0.00 86 1027.1
20220809101344 57 231 1.0 3.0 0.00 0.01 0.00 85 1027.0
20220809100837 57 231 1.0 3.0 0.00 0.01 0.00 85 1026.9
20220809100333 57 231 1.0 4.0 0.00 0.01 0.00 84 1027.0
20220809095828 58 231 2.0 4.0 0.00 0.01 0.00 84 1027.0
20220809095331 58 228 1.0 3.0 0.00 0.01 0.00 83 1027.3
20220809094819 58 228 0.0 3.0 0.00 0.01 0.00 83 1027.1
20220809094317 58 228 0.0 0.0 0.00 0.01 0.00 83 1026.9
20220809093812 58 228 0.0 0.0 0.00 0.01 0.00 82 1026.9
20220809093249 58 228 0.0 0.0 0.00 0.01 0.00 82 1027.0
20220809092740 59 228 0.0 0.0 0.00 0.01 0.00 81 1027.0
20220809092234 59 228 0.0 0.0 0.00 0.01 0.00 82 1027.1
20220809091728 59 228 0.0 0.0 0.00 0.01 0.00 82 1027.0
20220809091213 59 228 0.0 0.0 0.00 0.01 0.00 81 1027.0
20220809090657 59 228 0.0 0.0 0.00 0.01 0.00 81 1026.9
20220809090155 59 228 0.0 2.0 0.00 0.01 0.00 81 1027.0
20220809085646 59 228 1.0 3.0 0.00 0.01 0.00 81 1026.9
20220809085146 59 228 2.0 3.0 0.00 0.01 0.00 81 1026.9
20220809084640 59 228 2.0 3.0 0.00 0.01 0.00 81 1027.0
20220809084131 59 228 1.0 3.0 0.00 0.01 0.00 81 1027.0
20220809083630 59 228 1.0 2.0 0.00 0.01 0.00 82 1026.9
20220809083131 59 228 0.0 2.0 0.00 0.01 0.00 81 1026.9
20220809082611 60 228 0.0 1.0 0.00 0.01 0.00 81 1026.9
20220809082105 60 228 0.0 1.0 0.00 0.01 0.00 81 1026.9
20220809081600 60 228 1.0 3.0 0.00 0.01 0.00 81 1027.0
20220809081049 60 228 2.0 3.0 0.00 0.01 0.00 80 1027.0
20220809080546 60 228 2.0 3.0 0.00 0.01 0.00 79 1027.0
20220809080045 60 228 1.0 3.0 0.00 0.01 0.00 79 1027.0
20220809075541 60 228 1.0 4.0 0.00 0.01 0.00 79 1026.9
20220809075043 60 228 2.0 4.0 0.00 0.01 0.00 80 1026.9
20220809074541 61 228 2.0 4.0 0.00 0.01 0.00 80 1027.0
20220809074042 61 228 1.0 4.0 0.00 0.01 0.00 80 1027.1
20220809073534 61 229 1.0 3.0 0.00 0.01 0.00 80 1027.1
20220809073032 61 229 1.0 3.0 0.00 0.01 0.00 79 1027.3
20220809072522 61 223 1.0 2.0 0.00 0.01 0.00 77 1027.3
20220809072021 61 223 2.0 4.0 0.00 0.01 0.00 77 1027.3
20220809071452 61 223 3.0 5.0 0.00 0.01 0.00 78 1027.3
20220809070952 60 222 2.0 5.0 0.00 0.01 0.00 80 1027.3
20220809070446 61 217 2.0 4.0 0.00 0.01 0.00 81 1027.4
20220809065946 61 217 1.0 4.0 0.00 0.01 0.00 82 1027.4
20220809065446 61 216 0.0 0.0 0.00 0.01 0.00 83 1027.5
20220809064946 61 216 0.0 0.0 0.00 0.01 0.00 84 1027.5
20220809064443 61 215 0.0 0.0 0.00 0.02 0.00 84 1027.8
20220809063945 61 215 0.0 0.0 0.00 0.04 0.00 85 1027.6
20220809063438 61 208 0.0 0.0 0.00 0.04 0.00 85 1027.8
20220809062930 61 198 0.0 0.0 0.00 0.04 0.00 85 1027.8
20220809062427 61 198 0.0 0.0 0.00 0.04 0.00 85 1027.8
20220809061914 61 194 0.0 0.0 0.00 0.04 0.00 85 1027.8
20220809061415 61 194 0.0 0.0 0.00 0.04 0.00 85 1027.8
20220809060909 62 194 0.0 0.0 0.00 0.04 0.00 85 1027.8
20220809060343 62 194 0.0 0.0 0.00 0.04 0.00 85 1027.9
20220809055840 62 194 0.0 0.0 0.00 0.04 0.04 85 1027.9
20220809055342 62 194 0.0 0.0 0.00 0.04 0.04 85 1027.9
20220809054827 62 193 0.0 0.0 0.00 0.04 0.04 85 1027.9
20220809054250 62 193 0.0 0.0 0.00 0.04 0.04 84 1027.9
20220809053749 62 192 0.0 0.0 0.00 0.04 0.04 84 1028.0
20220809053248 62 192 0.0 0.0 0.00 0.04 0.04 84 1028.0
20220809052738 62 90 0.0 0.0 0.00 0.04 0.04 84 1028.0
20220809052230 62 90 0.0 0.0 0.00 0.04 0.04 84 1028.0
20220809051714 62 90 0.0 0.0 0.00 0.05 0.04 83 1028.0
20220809051158 62 89 0.0 0.0 0.00 0.05 0.04 83 1028.0
20220809050648 62 89 0.0 0.0 0.00 0.05 0.04 83 1028.1
20220809050151 62 89 0.0 0.0 0.00 0.05 0.04 82 1028.1
20220809045644 62 89 0.0 0.0 0.00 0.05 0.04 81 1028.2
20220809045141 62 89 0.0 0.0 0.00 0.05 0.04 82 1028.1
20220809044640 62 89 0.0 0.0 0.00 0.05 0.04 81 1028.2
20220809044114 62 89 0.0 0.0 0.00 0.05 0.04 81 1028.4
20220809043602 62 89 0.0 0.0 0.00 0.05 0.04 81 1028.5
20220809043058 62 89 0.0 0.0 0.00 0.05 0.04 81 1028.4
20220809042546 62 78 0.0 0.0 0.00 0.05 0.04 81 1028.4
20220809042035 62 78 0.0 0.0 0.00 0.05 0.04 81 1028.2
20220809041526 62 78 0.0 0.0 0.00 0.05 0.04 81 1028.4
20220809041012 63 78 0.0 0.0 0.00 0.05 0.04 80 1028.2
20220809040515 63 78 0.0 0.0 0.00 0.05 0.04 80 1028.2
20220809040003 63 78 0.0 0.0 0.00 0.05 0.04 81 1028.2
20220809035455 63 77 0.0 0.0 0.00 0.05 0.04 80 1028.2
20220809034958 63 77 0.0 0.0 0.00 0.05 0.04 80 1028.2
20220809034448 63 77 0.0 0.0 0.00 0.05 0.04 79 1028.2
20220809033948 63 77 0.0 0.0 0.00 0.05 0.04 78 1028.1
20220809032945 63 77 0.0 0.0 0.00 0.05 0.04 78 1028.0
20220809032411 64 77 0.0 0.0 0.00 0.05 0.04 78 1028.0
20220809031901 64 77 0.0 0.0 0.00 0.05 0.04 78 1027.9
20220809031357 64 77 0.0 0.0 0.00 0.05 0.04 76 1027.9
20220809030848 64 77 0.0 0.0 0.00 0.05 0.04 76 1028.0
20220809030349 64 77 0.0 0.0 0.00 0.05 0.04 76 1028.0
20220809025840 64 77 0.0 0.0 0.00 0.05 0.04 75 1027.9
20220809025320 64 77 0.0 0.0 0.00 0.05 0.04 75 1027.9
20220809024811 64 77 0.0 0.0 0.00 0.06 0.04 76 1027.8
20220809024250 64 78 0.0 0.0 0.00 0.06 0.04 75 1027.8
20220809023743 64 126 0.0 2.0 0.00 0.07 0.04 75 1027.6
20220809023233 64 126 0.0 2.0 0.00 0.07 0.04 74 1027.5
20220809022727 64 126 0.0 1.0 0.00 0.08 0.04 73 1027.4
20220809022225 64 126 1.0 1.0 0.00 0.09 0.04 73 1027.3
20220809021702 65 126 1.0 2.0 0.00 0.10 0.04 72 1027.1
20220809021200 65 126 1.0 3.0 0.00 0.10 0.04 72 1027.1